Ramah, Texas
Current Conditions -  °F | °C
As of 7:35 AM on Thursday 18 Dec 2014 (Local Time) from KOCH Reporting Station
Overcast Overcast  
Wind Chill: 46°   Ceiling: 1200
Heat Index: 46°   Visibility: 10mi
Dew Point: 43°   Wind: 3mph
Humidity: 87%   Direction: 30°NNE
Pressure: 30.15"   Gusts: NA
Location:  31.9382°N, 94.2541°W
Report Text: KOCH 181335Z AUTO 03003KT 10SM OVC012 08/06 A3015 RMK AO1
Loading
Personal Weather Stations






























Interactive Weather Map New forecast layout! Learn more

10-Day Weather Forecast

Advertisements
Track Severe Weather on mobile